Time,TemperatureF,DewpointF,PressureIn,WindDirection,WindDirectionDegrees,WindSpeedMPH,WindSpeedGustMPH,Humidity,HourlyPrecipIn,Conditions,Clouds,dailyrainin,SolarRadiationWatts/m^2,SoftwareType,DateUTC
2013-05-16 00:02:00,44.0,40.0,-100.00,NE,52,0.0,9.0,86,0.00,,,0.01,0.000000,,2013-05-16 07:02:00,
2013-05-16 00:12:00,44.0,40.0,-100.00,NE,52,0.0,9.0,86,0.00,,,0.01,0.000000,,2013-05-16 07:12:00,
2013-05-16 00:44:00,43.0,41.0,-100.00,NW,312,1.0,8.0,94,0.00,,,0.01,0.000000,,2013-05-16 07:44:00,
2013-05-16 00:54:00,43.0,41.0,-100.00,NW,312,1.0,8.0,94,0.00,,,0.01,0.000000,,2013-05-16 07:54:00,
2013-05-16 01:03:00,43.0,41.0,-100.00,NW,312,1.0,8.0,94,0.00,,,0.01,0.000000,,2013-05-16 08:03:00,
2013-05-16 01:13:00,43.0,41.0,-100.00,NW,312,1.0,8.0,94,0.00,,,0.01,0.000000,,2013-05-16 08:13:00,
2013-05-16 01:45:00,43.0,41.0,-100.00,NE,43,0.0,3.0,92,0.00,,,0.01,0.000000,,2013-05-16 08:45:00,
2013-05-16 01:55:00,43.0,41.0,-100.00,NE,43,0.0,3.0,92,0.00,,,0.01,0.000000,,2013-05-16 08:55:00,
2013-05-16 02:04:00,43.0,41.0,-100.00,NE,43,0.0,3.0,92,0.00,,,0.01,0.000000,,2013-05-16 09:04:00,
2013-05-16 02:14:00,43.0,41.0,-100.00,NE,43,0.0,3.0,92,0.00,,,0.01,0.000000,,2013-05-16 09:14:00,
2013-05-16 02:45:00,45.0,40.0,-100.00,NNE,20,1.0,11.0,83,0.00,,,0.01,0.000000,,2013-05-16 09:45:00,
2013-05-16 02:55:00,45.0,40.0,-100.00,NNE,20,1.0,11.0,83,0.00,,,0.01,0.000000,,2013-05-16 09:55:00,
2013-05-16 03:04:00,45.0,40.0,-100.00,NNE,20,1.0,11.0,83,0.00,,,0.01,0.000000,,2013-05-16 10:04:00,
2013-05-16 03:14:00,45.0,40.0,-100.00,NNE,20,1.0,11.0,83,0.00,,,0.01,0.000000,,2013-05-16 10:14:00,
2013-05-16 03:45:00,43.0,42.0,-100.00,SSE,153,0.0,4.0,96,0.00,,,0.01,0.000000,,2013-05-16 10:45:00,
2013-05-16 03:56:00,43.0,42.0,-100.00,SSE,153,0.0,4.0,96,0.00,,,0.01,0.000000,,2013-05-16 10:56:00,
2013-05-16 04:05:00,43.0,42.0,-100.00,SSE,153,0.0,4.0,96,0.00,,,0.01,0.000000,,2013-05-16 11:05:00,
2013-05-16 04:14:00,43.0,42.0,-100.00,SSE,153,0.0,4.0,96,0.00,,,0.01,0.000000,,2013-05-16 11:14:00,
2013-05-16 04:46:00,43.0,42.0,-100.00,NW,323,0.0,4.0,97,0.00,,,0.01,0.000000,,2013-05-16 11:46:00,
2013-05-16 04:57:00,43.0,42.0,-100.00,NW,323,0.0,4.0,97,0.00,,,0.01,0.000000,,2013-05-16 11:57:00,
2013-05-16 05:06:00,43.0,42.0,-100.00,NW,323,0.0,4.0,97,0.00,,,0.01,0.000000,,2013-05-16 12:06:00,
2013-05-16 05:13:00,43.0,42.0,-100.00,NW,323,0.0,4.0,97,0.00,,,0.01,0.000000,,2013-05-16 12:13:00,
2013-05-16 05:45:00,43.0,42.0,-100.00,NNW,339,0.0,4.0,96,0.00,,,0.01,0.000000,,2013-05-16 12:45:00,
2013-05-16 05:53:00,43.0,42.0,-100.00,NNW,339,0.0,4.0,96,0.00,,,0.01,0.000000,,2013-05-16 12:53:00,
2013-05-16 06:04:00,43.0,42.0,-100.00,NNW,339,0.0,4.0,96,0.00,,,0.01,0.000000,,2013-05-16 13:04:00,
2013-05-16 06:12:00,43.0,42.0,-100.00,NNW,339,0.0,4.0,96,0.00,,,0.01,0.000000,,2013-05-16 13:12:00,
2013-05-16 06:44:00,43.0,42.0,-100.00,West,281,0.0,2.0,97,0.00,,,0.01,6.000000,,2013-05-16 13:44:00,
2013-05-16 06:55:00,43.0,42.0,-100.00,West,281,0.0,2.0,97,0.00,,,0.01,6.000000,,2013-05-16 13:55:00,
2013-05-16 07:05:00,43.0,42.0,-100.00,West,281,0.0,2.0,97,0.00,,,0.01,6.000000,,2013-05-16 14:05:00,
2013-05-16 07:15:00,43.0,42.0,-100.00,West,281,0.0,2.0,97,0.00,,,0.01,6.000000,,2013-05-16 14:15:00,
2013-05-16 07:16:00,46.0,43.0,-100.00,NNE,26,1.0,4.0,90,0.00,,,0.01,94.000000,,2013-05-16 14:16:00,
2013-05-16 07:47:00,46.0,43.0,-100.00,NNE,26,1.0,4.0,90,0.00,,,0.01,94.000000,,2013-05-16 14:47:00,
2013-05-16 07:56:00,46.0,43.0,-100.00,NNE,26,1.0,4.0,90,0.00,,,0.01,94.000000,,2013-05-16 14:56:00,
2013-05-16 08:08:00,46.0,43.0,-100.00,NNE,26,1.0,4.0,90,0.00,,,0.01,94.000000,,2013-05-16 15:08:00,
2013-05-16 08:16:00,50.0,45.0,-100.00,SE,143,1.0,4.0,82,0.00,,,0.01,217.000000,,2013-05-16 15:16:00,
2013-05-16 08:50:00,50.0,45.0,-100.00,SE,143,1.0,4.0,82,0.00,,,0.01,217.000000,,2013-05-16 15:50:00,
2013-05-16 09:00:00,50.0,45.0,-100.00,SE,143,1.0,4.0,82,0.00,,,0.01,217.000000,,2013-05-16 16:00:00,
2013-05-16 09:09:00,50.0,45.0,-100.00,SE,143,1.0,4.0,82,0.00,,,0.01,217.000000,,2013-05-16 16:09:00,
2013-05-16 09:16:00,54.0,46.0,-100.00,East,84,2.0,7.0,73,0.00,,,0.01,473.000000,,2013-05-16 16:16:00,
2013-05-16 09:51:00,54.0,46.0,-100.00,East,84,2.0,7.0,73,0.00,,,0.01,473.000000,,2013-05-16 16:51:00,
2013-05-16 10:00:00,54.0,46.0,-100.00,East,84,2.0,7.0,73,0.00,,,0.01,473.000000,,2013-05-16 17:00:00,
2013-05-16 10:10:00,54.0,46.0,-100.00,East,84,2.0,7.0,73,0.00,,,0.01,473.000000,,2013-05-16 17:10:00,
2013-05-16 10:16:00,51.0,46.0,-100.00,SE,131,2.0,8.0,82,0.00,,,0.01,149.000000,,2013-05-16 17:16:00,
2013-05-16 10:50:00,-999.0,-99.9,-100.00,SE,131,2.0,8.0,82,0.00,,,0.01,149.000000,,2013-05-16 17:50:00,
2013-05-16 11:00:00,-999.0,-99.9,-100.00,SE,131,2.0,8.0,82,0.00,,,0.01,149.000000,,2013-05-16 18:00:00,
2013-05-16 11:10:00,51.0,46.0,-100.00,SE,131,2.0,8.0,82,0.00,,,0.01,149.000000,,2013-05-16 18:10:00,
2013-05-16 11:16:00,57.0,48.0,-100.00,NE,44,3.0,8.0,73,0.00,,,0.00,527.000000,,2013-05-16 18:16:00,
2013-05-16 11:50:00,-999.0,-99.9,-100.00,NE,44,3.0,8.0,73,0.00,,,0.00,527.000000,,2013-05-16 18:50:00,
2013-05-16 12:00:00,-999.0,-99.9,-100.00,NE,44,3.0,8.0,73,0.00,,,0.00,527.000000,,2013-05-16 19:00:00,
2013-05-16 12:10:00,57.0,48.0,-100.00,NE,44,3.0,8.0,73,0.00,,,0.00,527.000000,,2013-05-16 19:10:00,
2013-05-16 12:16:00,57.0,-99.9,-100.00,ENE,67,2.0,8.0,63,0.00,,,0.00,447.000000,,2013-05-16 19:16:00,
2013-05-16 12:51:00,-999.0,-99.9,-100.00,ENE,67,2.0,8.0,63,0.00,,,0.00,447.000000,,2013-05-16 19:51:00,
2013-05-16 13:00:00,-999.0,-99.9,-100.00,ENE,67,2.0,8.0,63,0.00,,,0.00,447.000000,,2013-05-16 20:00:00,
2013-05-16 13:10:00,-999.0,-99.9,-100.00,ENE,67,2.0,8.0,63,0.00,,,0.00,447.000000,,2013-05-16 20:10:00,
2013-05-16 13:16:00,58.0,44.0,-100.00,ESE,122,2.0,8.0,59,0.00,,,0.00,512.000000,,2013-05-16 20:16:00,
2013-05-16 13:51:00,58.0,44.0,-100.00,ESE,122,2.0,8.0,59,0.00,,,0.00,512.000000,,2013-05-16 20:51:00,
2013-05-16 14:00:00,58.0,-99.9,-100.00,ESE,122,2.0,8.0,59,0.00,,,0.00,512.000000,,2013-05-16 21:00:00,
2013-05-16 14:10:00,58.0,-99.9,-100.00,ESE,122,2.0,8.0,59,0.00,,,0.00,512.000000,,2013-05-16 21:10:00,
2013-05-16 14:16:00,52.0,48.0,-100.00,West,264,2.0,8.0,86,0.02,,,0.02,214.000000,,2013-05-16 21:16:00,
2013-05-16 15:00:00,-999.0,-99.9,-100.00,West,264,2.0,8.0,86,0.02,,,0.02,214.000000,,2013-05-16 22:00:00,
2013-05-16 15:08:00,52.0,48.0,-100.00,West,264,2.0,8.0,86,0.02,,,0.02,214.000000,,2013-05-16 22:08:00,
2013-05-16 15:16:00,57.0,46.0,-100.00,WSW,242,2.0,6.0,67,0.00,,,0.02,316.000000,,2013-05-16 22:16:00,
2013-05-16 15:51:00,57.0,46.0,-100.00,WSW,242,2.0,6.0,67,0.00,,,0.02,316.000000,,2013-05-16 22:51:00,
2013-05-16 16:01:00,57.0,46.0,-100.00,WSW,242,2.0,6.0,67,0.00,,,0.02,316.000000,,2013-05-16 23:01:00,
2013-05-16 16:06:00,57.0,46.0,-100.00,WSW,242,2.0,6.0,67,0.00,,,0.02,316.000000,,2013-05-16 23:06:00,
2013-05-16 16:45:00,53.0,43.0,-100.00,WSW,258,4.0,11.0,68,0.00,,,0.02,274.000000,,2013-05-16 23:45:00,
2013-05-16 16:54:00,53.0,43.0,-100.00,WSW,258,4.0,11.0,68,0.00,,,0.02,274.000000,,2013-05-16 23:54:00,
2013-05-16 17:02:00,53.0,43.0,-100.00,WSW,258,4.0,11.0,68,0.00,,,0.02,274.000000,,2013-05-17 00:02:00,
2013-05-16 17:13:00,53.0,43.0,-100.00,WSW,258,4.0,11.0,68,0.00,,,0.02,274.000000,,2013-05-17 00:13:00,
2013-05-16 17:44:00,51.0,45.0,-100.00,West,274,3.0,10.0,80,0.01,,,0.03,143.000000,,2013-05-17 00:44:00,
2013-05-16 17:53:00,51.0,45.0,-100.00,West,274,3.0,10.0,80,0.01,,,0.03,143.000000,,2013-05-17 00:53:00,
2013-05-16 18:03:00,51.0,45.0,-100.00,West,274,3.0,10.0,80,0.01,,,0.03,143.000000,,2013-05-17 01:03:00,
2013-05-16 18:12:00,51.0,45.0,-100.00,West,274,3.0,10.0,80,0.01,,,0.03,143.000000,,2013-05-17 01:12:00,
2013-05-16 18:44:00,52.0,42.0,-100.00,WSW,252,6.0,13.0,69,0.00,,,0.03,172.000000,,2013-05-17 01:44:00,
2013-05-16 18:52:00,52.0,42.0,-100.00,WSW,252,6.0,13.0,69,0.00,,,0.03,172.000000,,2013-05-17 01:52:00,
2013-05-16 19:02:00,52.0,42.0,-100.00,WSW,252,6.0,13.0,69,0.00,,,0.03,172.000000,,2013-05-17 02:02:00,
2013-05-16 19:11:00,52.0,42.0,-100.00,WSW,252,6.0,13.0,69,0.00,,,0.03,172.000000,,2013-05-17 02:11:00,
2013-05-16 19:33:00,49.0,40.0,-100.00,WSW,252,5.0,17.0,72,0.00,,,0.03,103.000000,,2013-05-17 02:33:00,
2013-05-16 19:42:00,49.0,40.0,-100.00,WSW,252,5.0,17.0,72,0.00,,,0.03,103.000000,,2013-05-17 02:42:00,
2013-05-16 19:53:00,49.0,40.0,-100.00,WSW,252,5.0,17.0,72,0.00,,,0.03,103.000000,,2013-05-17 02:53:00,
2013-05-16 20:01:00,49.0,40.0,-100.00,WSW,252,5.0,17.0,72,0.00,,,0.03,103.000000,,2013-05-17 03:01:00,
2013-05-16 20:11:00,49.0,40.0,-100.00,WSW,252,5.0,17.0,72,0.00,,,0.03,103.000000,,2013-05-17 03:11:00,
2013-05-16 20:43:00,47.0,41.0,-100.00,WSW,255,4.0,14.0,80,0.00,,,0.03,24.000000,,2013-05-17 03:43:00,
2013-05-16 20:53:00,47.0,41.0,-100.00,WSW,255,4.0,14.0,80,0.00,,,0.03,24.000000,,2013-05-17 03:53:00,
2013-05-16 21:02:00,47.0,41.0,-100.00,WSW,255,4.0,14.0,80,0.00,,,0.03,24.000000,,2013-05-17 04:02:00,
2013-05-16 21:13:00,47.0,41.0,-100.00,WSW,255,4.0,14.0,80,0.00,,,0.03,24.000000,,2013-05-17 04:13:00,
2013-05-16 21:34:00,45.0,43.0,-100.00,West,268,3.0,11.0,92,0.03,,,0.06,1.000000,,2013-05-17 04:34:00,
2013-05-16 21:43:00,45.0,43.0,-100.00,West,268,3.0,11.0,92,0.03,,,0.06,1.000000,,2013-05-17 04:43:00,
2013-05-16 21:53:00,45.0,43.0,-100.00,West,268,3.0,11.0,92,0.03,,,0.06,1.000000,,2013-05-17 04:53:00,
2013-05-16 22:02:00,45.0,43.0,-100.00,West,268,3.0,11.0,92,0.03,,,0.06,1.000000,,2013-05-17 05:02:00,
2013-05-16 22:13:00,45.0,43.0,-100.00,West,268,3.0,11.0,92,0.03,,,0.06,1.000000,,2013-05-17 05:13:00,
2013-05-16 22:32:00,45.0,43.0,-100.00,ENE,74,1.0,10.0,94,0.01,,,0.07,0.000000,,2013-05-17 05:32:00,
2013-05-16 22:43:00,45.0,43.0,-100.00,ENE,74,1.0,10.0,94,0.01,,,0.07,0.000000,,2013-05-17 05:43:00,
2013-05-16 22:52:00,45.0,43.0,-100.00,ENE,74,1.0,10.0,94,0.01,,,0.07,0.000000,,2013-05-17 05:52:00,
2013-05-16 23:01:00,45.0,43.0,-100.00,ENE,74,1.0,10.0,94,0.01,,,0.07,0.000000,,2013-05-17 06:01:00,
2013-05-16 23:11:00,45.0,43.0,-100.00,ENE,74,1.0,10.0,94,0.01,,,0.07,0.000000,,2013-05-17 06:11:00,
2013-05-16 23:42:00,44.0,42.0,-100.00,NNW,346,2.0,4.0,94,0.02,,,0.09,0.000000,,2013-05-17 06:42:00,
2013-05-16 23:52:00,44.0,42.0,-100.00,NNW,346,2.0,4.0,94,0.02,,,0.09,0.000000,,2013-05-17 06:52:00,